sensor_id;sensor_type;location;lat;lon;timestamp;temperature;humidity
21778;DHT22;11050;52.222;20.916;2023-09-19T00:00:34;18.30;99.90
21778;DHT22;11050;52.222;20.916;2023-09-19T00:03:01;18.30;99.90
21778;DHT22;11050;52.222;20.916;2023-09-19T00:05:28;18.30;99.90
21778;DHT22;11050;52.222;20.916;2023-09-19T00:07:56;18.30;99.90
21778;DHT22;11050;52.222;20.916;2023-09-19T00:10:28;18.20;99.90
21778;DHT22;11050;52.222;20.916;2023-09-19T00:12:57;18.20;99.90
21778;DHT22;11050;52.222;20.916;2023-09-19T00:15:36;18.20;99.90
21778;DHT22;11050;52.222;20.916;2023-09-19T00:18:03;18.20;99.90
21778;DHT22;11050;52.222;20.916;2023-09-19T00:20:31;18.10;99.90
21778;DHT22;11050;52.222;20.916;2023-09-19T00:22:58;18.10;99.90
21778;DHT22;11050;52.222;20.916;2023-09-19T00:25:24;18.10;99.90
21778;DHT22;11050;52.222;20.916;2023-09-19T00:27:51;18.10;99.90
21778;DHT22;11050;52.222;20.916;2023-09-19T00:30:17;18.10;99.90
21778;DHT22;11050;52.222;20.916;2023-09-19T00:32:47;18.00;99.90
21778;DHT22;11050;52.222;20.916;2023-09-19T00:35:14;18.00;99.90
21778;DHT22;11050;52.222;20.916;2023-09-19T00:37:41;18.00;99.90
21778;DHT22;11050;52.222;20.916;2023-09-19T00:40:08;17.90;99.90
21778;DHT22;11050;52.222;20.916;2023-09-19T00:42:40;18.00;99.90
21778;DHT22;11050;52.222;20.916;2023-09-19T00:45:11;18.00;99.90
21778;DHT22;11050;52.222;20.916;2023-09-19T00:47:42;17.90;99.90
21778;DHT22;11050;52.222;20.916;2023-09-19T00:50:09;17.90;99.90
21778;DHT22;11050;52.222;20.916;2023-09-19T00:52:37;17.80;99.90
21778;DHT22;11050;52.222;20.916;2023-09-19T00:55:08;17.80;99.90
21778;DHT22;11050;52.222;20.916;2023-09-19T00:57:36;17.80;99.90
21778;DHT22;11050;52.222;20.916;2023-09-19T01:00:05;17.80;99.90
21778;DHT22;11050;52.222;20.916;2023-09-19T01:02:34;17.80;99.90
21778;DHT22;11050;52.222;20.916;2023-09-19T01:05:00;17.80;99.90
21778;DHT22;11050;52.222;20.916;2023-09-19T01:07:27;17.70;99.90
21778;DHT22;11050;52.222;20.916;2023-09-19T01:09:56;17.70;99.90
21778;DHT22;11050;52.222;20.916;2023-09-19T01:12:57;17.70;99.90
21778;DHT22;11050;52.222;20.916;2023-09-19T01:15:51;17.70;99.90
21778;DHT22;11050;52.222;20.916;2023-09-19T01:18:42;17.70;99.90
21778;DHT22;11050;52.222;20.916;2023-09-19T01:26:50;17.70;99.90
21778;DHT22;11050;52.222;20.916;2023-09-19T01:29:44;17.70;99.90
21778;DHT22;11050;52.222;20.916;2023-09-19T01:32:13;17.60;99.90
21778;DHT22;11050;52.222;20.916;2023-09-19T01:34:47;17.70;99.90
21778;DHT22;11050;52.222;20.916;2023-09-19T01:37:13;17.70;99.90
21778;DHT22;11050;52.222;20.916;2023-09-19T01:39:40;17.70;99.90
21778;DHT22;11050;52.222;20.916;2023-09-19T01:42:21;17.80;99.90
21778;DHT22;11050;52.222;20.916;2023-09-19T01:44:57;17.80;99.90
21778;DHT22;11050;52.222;20.916;2023-09-19T01:47:33;17.80;99.90
21778;DHT22;11050;52.222;20.916;2023-09-19T01:50:30;17.80;99.90
21778;DHT22;11050;52.222;20.916;2023-09-19T01:53:14;17.90;99.90
21778;DHT22;11050;52.222;20.916;2023-09-19T01:55:48;17.90;99.90
21778;DHT22;11050;52.222;20.916;2023-09-19T01:58:41;17.90;99.90
21778;DHT22;11050;52.222;20.916;2023-09-19T02:01:14;17.80;99.90
21778;DHT22;11050;52.222;20.916;2023-09-19T02:03:44;17.80;99.90
21778;DHT22;11050;52.222;20.916;2023-09-19T02:06:16;17.80;99.90
21778;DHT22;11050;52.222;20.916;2023-09-19T02:08:44;17.80;99.90
21778;DHT22;11050;52.222;20.916;2023-09-19T02:11:13;17.80;99.90
21778;DHT22;11050;52.222;20.916;2023-09-19T02:13:39;17.80;99.90
21778;DHT22;11050;52.222;20.916;2023-09-19T02:16:06;17.80;99.90
21778;DHT22;11050;52.222;20.916;2023-09-19T02:18:32;17.70;99.90
21778;DHT22;11050;52.222;20.916;2023-09-19T02:21:03;17.80;99.90
21778;DHT22;11050;52.222;20.916;2023-09-19T02:23:30;17.70;99.90
21778;DHT22;11050;52.222;20.916;2023-09-19T02:25:56;17.70;99.90
21778;DHT22;11050;52.222;20.916;2023-09-19T02:28:31;17.70;99.90
21778;DHT22;11050;52.222;20.916;2023-09-19T02:30:58;17.70;99.90
21778;DHT22;11050;52.222;20.916;2023-09-19T02:33:24;17.60;99.90
21778;DHT22;11050;52.222;20.916;2023-09-19T02:35:55;17.60;99.90
21778;DHT22;11050;52.222;20.916;2023-09-19T02:38:23;17.60;99.90
21778;DHT22;11050;52.222;20.916;2023-09-19T02:40:50;17.50;99.90
21778;DHT22;11050;52.222;20.916;2023-09-19T02:43:16;17.50;99.90
21778;DHT22;11050;52.222;20.916;2023-09-19T02:45:42;17.50;99.90
21778;DHT22;11050;52.222;20.916;2023-09-19T02:48:08;17.50;99.90
21778;DHT22;11050;52.222;20.916;2023-09-19T02:50:34;17.40;99.90
21778;DHT22;11050;52.222;20.916;2023-09-19T02:53:00;17.40;99.90
21778;DHT22;11050;52.222;20.916;2023-09-19T02:55:25;17.40;99.90
21778;DHT22;11050;52.222;20.916;2023-09-19T02:57:52;17.40;99.90
21778;DHT22;11050;52.222;20.916;2023-09-19T03:00:22;17.30;99.90
21778;DHT22;11050;52.222;20.916;2023-09-19T03:02:53;17.30;99.90
21778;DHT22;11050;52.222;20.916;2023-09-19T03:05:21;17.30;99.90
21778;DHT22;11050;52.222;20.916;2023-09-19T03:07:47;17.30;99.90
21778;DHT22;11050;52.222;20.916;2023-09-19T03:10:17;17.20;99.90
21778;DHT22;11050;52.222;20.916;2023-09-19T03:12:43;17.20;99.90
21778;DHT22;11050;52.222;20.916;2023-09-19T03:15:09;17.20;99.90
21778;DHT22;11050;52.222;20.916;2023-09-19T03:17:35;17.20;99.90
21778;DHT22;11050;52.222;20.916;2023-09-19T03:20:02;17.20;99.90
21778;DHT22;11050;52.222;20.916;2023-09-19T03:22:29;17.10;99.90
21778;DHT22;11050;52.222;20.916;2023-09-19T03:24:55;17.10;99.90
21778;DHT22;11050;52.222;20.916;2023-09-19T03:27:21;17.10;99.90
21778;DHT22;11050;52.222;20.916;2023-09-19T03:29:47;17.10;99.90
21778;DHT22;11050;52.222;20.916;2023-09-19T03:32:12;17.10;99.90
21778;DHT22;11050;52.222;20.916;2023-09-19T03:34:38;17.10;99.90
21778;DHT22;11050;52.222;20.916;2023-09-19T03:37:09;17.10;99.90
21778;DHT22;11050;52.222;20.916;2023-09-19T03:39:35;17.00;99.90
21778;DHT22;11050;52.222;20.916;2023-09-19T03:42:02;17.00;99.90
21778;DHT22;11050;52.222;20.916;2023-09-19T03:44:32;17.00;99.90
21778;DHT22;11050;52.222;20.916;2023-09-19T03:46:58;17.00;99.90
21778;DHT22;11050;52.222;20.916;2023-09-19T03:49:24;16.90;99.90
21778;DHT22;11050;52.222;20.916;2023-09-19T03:51:50;16.90;99.90
21778;DHT22;11050;52.222;20.916;2023-09-19T03:54:15;16.90;99.90
21778;DHT22;11050;52.222;20.916;2023-09-19T03:56:42;17.00;99.90
21778;DHT22;11050;52.222;20.916;2023-09-19T03:59:09;17.00;99.90
21778;DHT22;11050;52.222;20.916;2023-09-19T04:01:35;17.00;99.90
21778;DHT22;11050;52.222;20.916;2023-09-19T04:04:00;17.10;99.90
21778;DHT22;11050;52.222;20.916;2023-09-19T04:06:34;17.10;99.90
21778;DHT22;11050;52.222;20.916;2023-09-19T04:09:04;17.20;99.90
21778;DHT22;11050;52.222;20.916;2023-09-19T04:11:30;17.20;99.90
21778;DHT22;11050;52.222;20.916;2023-09-19T04:13:56;17.20;99.90
21778;DHT22;11050;52.222;20.916;2023-09-19T04:16:22;17.20;99.90
21778;DHT22;11050;52.222;20.916;2023-09-19T04:18:48;17.20;99.90
21778;DHT22;11050;52.222;20.916;2023-09-19T04:21:14;17.20;99.90
21778;DHT22;11050;52.222;20.916;2023-09-19T04:23:39;17.20;99.90
21778;DHT22;11050;52.222;20.916;2023-09-19T04:26:05;17.20;99.90
21778;DHT22;11050;52.222;20.916;2023-09-19T04:28:31;17.20;99.90
21778;DHT22;11050;52.222;20.916;2023-09-19T04:30:59;17.20;99.90
21778;DHT22;11050;52.222;20.916;2023-09-19T04:33:28;17.20;99.90
21778;DHT22;11050;52.222;20.916;2023-09-19T04:35:53;17.20;99.90
21778;DHT22;11050;52.222;20.916;2023-09-19T04:38:19;17.20;99.90
21778;DHT22;11050;52.222;20.916;2023-09-19T04:40:46;17.20;99.90
21778;DHT22;11050;52.222;20.916;2023-09-19T04:43:11;17.20;99.90
21778;DHT22;11050;52.222;20.916;2023-09-19T04:45:38;17.20;99.90
21778;DHT22;11050;52.222;20.916;2023-09-19T04:48:07;17.10;99.90
21778;DHT22;11050;52.222;20.916;2023-09-19T04:50:34;17.10;99.90
21778;DHT22;11050;52.222;20.916;2023-09-19T04:53:00;17.20;99.90
21778;DHT22;11050;52.222;20.916;2023-09-19T04:55:26;17.10;99.90
21778;DHT22;11050;52.222;20.916;2023-09-19T04:57:53;17.20;99.90
21778;DHT22;11050;52.222;20.916;2023-09-19T05:00:22;17.20;99.90
21778;DHT22;11050;52.222;20.916;2023-09-19T05:02:55;17.30;99.90
21778;DHT22;11050;52.222;20.916;2023-09-19T05:05:22;17.30;99.90
21778;DHT22;11050;52.222;20.916;2023-09-19T05:07:49;17.40;99.90
21778;DHT22;11050;52.222;20.916;2023-09-19T05:10:16;17.50;99.90
21778;DHT22;11050;52.222;20.916;2023-09-19T05:12:44;17.50;99.90
21778;DHT22;11050;52.222;20.916;2023-09-19T05:15:13;17.60;99.90
21778;DHT22;11050;52.222;20.916;2023-09-19T05:17:40;17.60;99.90
21778;DHT22;11050;52.222;20.916;2023-09-19T05:20:06;17.70;99.90
21778;DHT22;11050;52.222;20.916;2023-09-19T05:22:57;17.80;99.90
21778;DHT22;11050;52.222;20.916;2023-09-19T05:25:34;17.80;99.90
21778;DHT22;11050;52.222;20.916;2023-09-19T05:28:09;17.90;99.90
21778;DHT22;11050;52.222;20.916;2023-09-19T05:30:37;18.00;99.90
21778;DHT22;11050;52.222;20.916;2023-09-19T05:33:06;18.00;99.90
21778;DHT22;11050;52.222;20.916;2023-09-19T05:35:33;18.00;99.90
21778;DHT22;11050;52.222;20.916;2023-09-19T05:37:58;18.00;99.90
21778;DHT22;11050;52.222;20.916;2023-09-19T05:40:25;18.00;99.90
21778;DHT22;11050;52.222;20.916;2023-09-19T05:42:51;18.10;99.90
21778;DHT22;11050;52.222;20.916;2023-09-19T05:45:17;18.10;99.90
21778;DHT22;11050;52.222;20.916;2023-09-19T05:47:50;18.20;99.90
21778;DHT22;11050;52.222;20.916;2023-09-19T05:50:21;18.20;99.90
21778;DHT22;11050;52.222;20.916;2023-09-19T05:52:54;18.20;99.90
21778;DHT22;11050;52.222;20.916;2023-09-19T05:55:21;18.30;99.90
21778;DHT22;11050;52.222;20.916;2023-09-19T05:57:53;18.30;99.90
21778;DHT22;11050;52.222;20.916;2023-09-19T06:00:19;18.40;99.90
21778;DHT22;11050;52.222;20.916;2023-09-19T06:02:51;18.40;99.90
21778;DHT22;11050;52.222;20.916;2023-09-19T06:05:18;18.50;99.90
21778;DHT22;11050;52.222;20.916;2023-09-19T06:07:44;18.50;99.90
21778;DHT22;11050;52.222;20.916;2023-09-19T06:10:10;18.60;99.90
21778;DHT22;11050;52.222;20.916;2023-09-19T06:12:42;18.60;99.90
21778;DHT22;11050;52.222;20.916;2023-09-19T06:15:12;18.60;99.90
21778;DHT22;11050;52.222;20.916;2023-09-19T06:17:48;18.70;99.90
21778;DHT22;11050;52.222;20.916;2023-09-19T06:20:20;18.80;99.90
21778;DHT22;11050;52.222;20.916;2023-09-19T06:22:48;18.80;99.90
21778;DHT22;11050;52.222;20.916;2023-09-19T06:25:15;18.90;99.90
21778;DHT22;11050;52.222;20.916;2023-09-19T06:27:48;18.90;99.90
21778;DHT22;11050;52.222;20.916;2023-09-19T06:30:17;19.00;99.90
21778;DHT22;11050;52.222;20.916;2023-09-19T06:32:44;19.00;99.90
21778;DHT22;11050;52.222;20.916;2023-09-19T06:35:13;19.10;99.90
21778;DHT22;11050;52.222;20.916;2023-09-19T06:37:41;19.20;99.90
21778;DHT22;11050;52.222;20.916;2023-09-19T06:40:09;19.30;99.90
21778;DHT22;11050;52.222;20.916;2023-09-19T06:43:06;19.40;99.90
21778;DHT22;11050;52.222;20.916;2023-09-19T06:45:32;19.50;99.90
21778;DHT22;11050;52.222;20.916;2023-09-19T06:47:58;19.70;99.90
21778;DHT22;11050;52.222;20.916;2023-09-19T06:50:25;19.80;99.90
21778;DHT22;11050;52.222;20.916;2023-09-19T06:52:54;20.00;99.90
21778;DHT22;11050;52.222;20.916;2023-09-19T06:55:22;20.10;99.90
21778;DHT22;11050;52.222;20.916;2023-09-19T06:57:53;20.20;99.90
21778;DHT22;11050;52.222;20.916;2023-09-19T07:00:19;20.40;99.90
21778;DHT22;11050;52.222;20.916;2023-09-19T07:05:30;20.60;99.90
21778;DHT22;11050;52.222;20.916;2023-09-19T07:07:57;20.70;99.90
21778;DHT22;11050;52.222;20.916;2023-09-19T07:10:25;20.80;99.90
21778;DHT22;11050;52.222;20.916;2023-09-19T07:13:03;20.90;99.90
21778;DHT22;11050;52.222;20.916;2023-09-19T07:15:39;20.90;99.90
21778;DHT22;11050;52.222;20.916;2023-09-19T07:18:07;21.00;99.90
21778;DHT22;11050;52.222;20.916;2023-09-19T07:20:36;21.10;99.90
21778;DHT22;11050;52.222;20.916;2023-09-19T07:23:03;21.20;99.90
21778;DHT22;11050;52.222;20.916;2023-09-19T07:25:29;21.30;99.90
21778;DHT22;11050;52.222;20.916;2023-09-19T07:27:56;21.40;99.90
21778;DHT22;11050;52.222;20.916;2023-09-19T07:30:26;21.40;99.90
21778;DHT22;11050;52.222;20.916;2023-09-19T07:32:52;21.50;99.90
21778;DHT22;11050;52.222;20.916;2023-09-19T07:35:18;21.60;99.90
21778;DHT22;11050;52.222;20.916;2023-09-19T07:37:46;21.60;99.90
21778;DHT22;11050;52.222;20.916;2023-09-19T07:40:15;21.70;99.90
21778;DHT22;11050;52.222;20.916;2023-09-19T07:42:42;21.70;99.90
21778;DHT22;11050;52.222;20.916;2023-09-19T07:45:10;21.70;99.90
21778;DHT22;11050;52.222;20.916;2023-09-19T07:47:43;21.70;99.90
21778;DHT22;11050;52.222;20.916;2023-09-19T07:50:10;21.70;99.90
21778;DHT22;11050;52.222;20.916;2023-09-19T07:52:36;21.70;99.90
21778;DHT22;11050;52.222;20.916;2023-09-19T07:55:07;21.60;99.90
21778;DHT22;11050;52.222;20.916;2023-09-19T07:57:35;21.60;99.90
21778;DHT22;11050;52.222;20.916;2023-09-19T08:00:01;21.50;99.90
21778;DHT22;11050;52.222;20.916;2023-09-19T08:02:33;21.50;99.90
21778;DHT22;11050;52.222;20.916;2023-09-19T08:05:00;21.50;99.90
21778;DHT22;11050;52.222;20.916;2023-09-19T08:07:26;21.50;99.90
21778;DHT22;11050;52.222;20.916;2023-09-19T08:09:51;21.50;99.90
21778;DHT22;11050;52.222;20.916;2023-09-19T08:12:17;21.50;99.90
21778;DHT22;11050;52.222;20.916;2023-09-19T08:14:45;21.50;99.90
21778;DHT22;11050;52.222;20.916;2023-09-19T08:17:12;21.60;99.90
21778;DHT22;11050;52.222;20.916;2023-09-19T08:19:38;21.60;99.90
21778;DHT22;11050;52.222;20.916;2023-09-19T08:22:07;21.60;99.90
21778;DHT22;11050;52.222;20.916;2023-09-19T08:24:35;21.50;99.90
21778;DHT22;11050;52.222;20.916;2023-09-19T08:27:03;21.50;99.90
21778;DHT22;11050;52.222;20.916;2023-09-19T08:29:30;21.60;99.90
21778;DHT22;11050;52.222;20.916;2023-09-19T08:31:57;21.70;99.90
21778;DHT22;11050;52.222;20.916;2023-09-19T08:34:26;21.70;99.90
21778;DHT22;11050;52.222;20.916;2023-09-19T08:36:55;21.70;99.90
21778;DHT22;11050;52.222;20.916;2023-09-19T08:39:24;21.70;99.90
21778;DHT22;11050;52.222;20.916;2023-09-19T08:42:00;21.70;99.90
21778;DHT22;11050;52.222;20.916;2023-09-19T08:44:29;21.60;99.90
21778;DHT22;11050;52.222;20.916;2023-09-19T08:47:10;21.50;99.90
21778;DHT22;11050;52.222;20.916;2023-09-19T08:49:57;21.40;99.90
21778;DHT22;11050;52.222;20.916;2023-09-19T08:52:32;21.40;99.90
21778;DHT22;11050;52.222;20.916;2023-09-19T08:55:06;21.40;99.90
21778;DHT22;11050;52.222;20.916;2023-09-19T08:57:36;21.40;99.90
21778;DHT22;11050;52.222;20.916;2023-09-19T09:00:07;21.40;99.90
21778;DHT22;11050;52.222;20.916;2023-09-19T09:02:38;21.40;99.90
21778;DHT22;11050;52.222;20.916;2023-09-19T09:05:08;21.30;99.90
21778;DHT22;11050;52.222;20.916;2023-09-19T09:07:37;21.20;99.90
21778;DHT22;11050;52.222;20.916;2023-09-19T09:10:04;21.10;99.90
21778;DHT22;11050;52.222;20.916;2023-09-19T09:12:30;21.10;99.90
21778;DHT22;11050;52.222;20.916;2023-09-19T09:14:56;21.00;99.90
21778;DHT22;11050;52.222;20.916;2023-09-19T09:17:26;21.00;99.90
21778;DHT22;11050;52.222;20.916;2023-09-19T09:19:52;20.90;99.90
21778;DHT22;11050;52.222;20.916;2023-09-19T09:22:19;20.70;99.90
21778;DHT22;11050;52.222;20.916;2023-09-19T09:24:59;20.60;99.90
21778;DHT22;11050;52.222;20.916;2023-09-19T09:27:29;20.50;99.90
21778;DHT22;11050;52.222;20.916;2023-09-19T09:29:55;20.30;99.90
21778;DHT22;11050;52.222;20.916;2023-09-19T09:32:24;20.10;99.90
21778;DHT22;11050;52.222;20.916;2023-09-19T09:34:59;20.00;99.90
21778;DHT22;11050;52.222;20.916;2023-09-19T09:37:26;19.90;99.90
21778;DHT22;11050;52.222;20.916;2023-09-19T09:40:01;19.70;99.90
21778;DHT22;11050;52.222;20.916;2023-09-19T09:42:40;19.50;99.90
21778;DHT22;11050;52.222;20.916;2023-09-19T09:47:48;19.10;99.90
21778;DHT22;11050;52.222;20.916;2023-09-19T09:50:32;18.90;99.90
21778;DHT22;11050;52.222;20.916;2023-09-19T09:53:22;18.80;99.90
21778;DHT22;11050;52.222;20.916;2023-09-19T09:58:36;18.60;99.90
21778;DHT22;11050;52.222;20.916;2023-09-19T10:01:17;18.50;99.90
21778;DHT22;11050;52.222;20.916;2023-09-19T10:03:43;18.40;99.90
21778;DHT22;11050;52.222;20.916;2023-09-19T10:06:14;18.40;99.90
21778;DHT22;11050;52.222;20.916;2023-09-19T10:11:30;18.50;99.90
21778;DHT22;11050;52.222;20.916;2023-09-19T10:13:59;18.50;99.90
21778;DHT22;11050;52.222;20.916;2023-09-19T10:16:30;18.50;99.90
21778;DHT22;11050;52.222;20.916;2023-09-19T10:19:00;18.60;99.90
21778;DHT22;11050;52.222;20.916;2023-09-19T10:21:28;18.70;99.90
21778;DHT22;11050;52.222;20.916;2023-09-19T10:23:58;18.70;99.90
21778;DHT22;11050;52.222;20.916;2023-09-19T10:26:26;18.70;99.90
21778;DHT22;11050;52.222;20.916;2023-09-19T10:28:56;18.80;99.90
21778;DHT22;11050;52.222;20.916;2023-09-19T10:31:26;18.80;99.90
21778;DHT22;11050;52.222;20.916;2023-09-19T10:33:55;18.90;99.90
21778;DHT22;11050;52.222;20.916;2023-09-19T10:36:24;19.00;99.90
21778;DHT22;11050;52.222;20.916;2023-09-19T10:38:56;19.10;99.90
21778;DHT22;11050;52.222;20.916;2023-09-19T10:41:27;19.10;99.90
21778;DHT22;11050;52.222;20.916;2023-09-19T10:43:57;19.20;99.90
21778;DHT22;11050;52.222;20.916;2023-09-19T10:46:25;19.20;99.90
21778;DHT22;11050;52.222;20.916;2023-09-19T10:48:50;19.20;99.90
21778;DHT22;11050;52.222;20.916;2023-09-19T10:51:23;19.20;99.90
21778;DHT22;11050;52.222;20.916;2023-09-19T10:54:11;19.20;99.90
21778;DHT22;11050;52.222;20.916;2023-09-19T10:56:49;19.20;99.90
21778;DHT22;11050;52.222;20.916;2023-09-19T10:59:21;19.20;99.90
21778;DHT22;11050;52.222;20.916;2023-09-19T11:01:53;19.30;99.90
21778;DHT22;11050;52.222;20.916;2023-09-19T11:07:12;19.40;99.90
21778;DHT22;11050;52.222;20.916;2023-09-19T11:14:57;19.50;99.90
21778;DHT22;11050;52.222;20.916;2023-09-19T11:17:33;19.50;99.90
21778;DHT22;11050;52.222;20.916;2023-09-19T11:30:48;19.50;99.90
21778;DHT22;11050;52.222;20.916;2023-09-19T11:36:12;19.50;99.90
21778;DHT22;11050;52.222;20.916;2023-09-19T11:49:28;19.50;99.90
21778;DHT22;11050;52.222;20.916;2023-09-19T11:51:55;19.50;99.90
21778;DHT22;11050;52.222;20.916;2023-09-19T11:54:22;19.60;99.90
21778;DHT22;11050;52.222;20.916;2023-09-19T11:56:54;19.60;99.90
21778;DHT22;11050;52.222;20.916;2023-09-19T11:59:21;19.60;99.90
21778;DHT22;11050;52.222;20.916;2023-09-19T12:02:06;19.70;99.90
21778;DHT22;11050;52.222;20.916;2023-09-19T12:04:39;19.70;99.90
21778;DHT22;11050;52.222;20.916;2023-09-19T12:07:10;19.60;99.90
21778;DHT22;11050;52.222;20.916;2023-09-19T12:09:44;19.60;99.90
21778;DHT22;11050;52.222;20.916;2023-09-19T12:12:28;19.60;99.90
21778;DHT22;11050;52.222;20.916;2023-09-19T12:14:56;19.60;99.90
21778;DHT22;11050;52.222;20.916;2023-09-19T12:17:38;19.60;99.90
21778;DHT22;11050;52.222;20.916;2023-09-19T12:20:06;19.60;99.90
21778;DHT22;11050;52.222;20.916;2023-09-19T12:22:43;19.70;99.90
21778;DHT22;11050;52.222;20.916;2023-09-19T12:25:15;19.70;99.90
21778;DHT22;11050;52.222;20.916;2023-09-19T12:27:49;19.70;99.90
21778;DHT22;11050;52.222;20.916;2023-09-19T12:30:19;19.60;99.90
21778;DHT22;11050;52.222;20.916;2023-09-19T12:32:48;19.60;99.90
21778;DHT22;11050;52.222;20.916;2023-09-19T12:35:31;19.60;99.90
21778;DHT22;11050;52.222;20.916;2023-09-19T12:38:01;19.50;99.90
21778;DHT22;11050;52.222;20.916;2023-09-19T12:40:28;19.50;99.90
21778;DHT22;11050;52.222;20.916;2023-09-19T12:42:59;19.50;99.90
21778;DHT22;11050;52.222;20.916;2023-09-19T12:45:26;19.50;99.90
21778;DHT22;11050;52.222;20.916;2023-09-19T12:48:18;19.50;99.90
21778;DHT22;11050;52.222;20.916;2023-09-19T12:51:09;19.50;99.90
21778;DHT22;11050;52.222;20.916;2023-09-19T12:53:42;19.50;99.90
21778;DHT22;11050;52.222;20.916;2023-09-19T12:56:10;19.60;99.90
21778;DHT22;11050;52.222;20.916;2023-09-19T12:58:54;19.60;99.90
21778;DHT22;11050;52.222;20.916;2023-09-19T13:01:25;19.60;99.90
21778;DHT22;11050;52.222;20.916;2023-09-19T13:06:51;19.60;99.90
21778;DHT22;11050;52.222;20.916;2023-09-19T13:09:19;19.60;99.90
21778;DHT22;11050;52.222;20.916;2023-09-19T13:11:46;19.60;99.90
21778;DHT22;11050;52.222;20.916;2023-09-19T13:14:26;19.60;99.90
21778;DHT22;11050;52.222;20.916;2023-09-19T13:17:00;19.60;99.90
21778;DHT22;11050;52.222;20.916;2023-09-19T13:19:50;19.60;99.90
21778;DHT22;11050;52.222;20.916;2023-09-19T13:22:41;19.60;99.90
21778;DHT22;11050;52.222;20.916;2023-09-19T13:25:21;19.60;99.90
21778;DHT22;11050;52.222;20.916;2023-09-19T13:27:52;19.60;99.90
21778;DHT22;11050;52.222;20.916;2023-09-19T13:30:26;19.70;99.90
21778;DHT22;11050;52.222;20.916;2023-09-19T13:33:09;19.70;99.90
21778;DHT22;11050;52.222;20.916;2023-09-19T13:35:36;19.70;99.90
21778;DHT22;11050;52.222;20.916;2023-09-19T13:38:03;19.80;99.90
21778;DHT22;11050;52.222;20.916;2023-09-19T13:40:29;19.80;99.90
21778;DHT22;11050;52.222;20.916;2023-09-19T13:42:56;19.90;99.90
21778;DHT22;11050;52.222;20.916;2023-09-19T13:45:22;19.90;99.90
21778;DHT22;11050;52.222;20.916;2023-09-19T13:47:50;19.90;99.90
21778;DHT22;11050;52.222;20.916;2023-09-19T13:50:16;20.00;99.90
21778;DHT22;11050;52.222;20.916;2023-09-19T13:52:44;19.90;99.90
21778;DHT22;11050;52.222;20.916;2023-09-19T13:55:09;20.00;99.90
21778;DHT22;11050;52.222;20.916;2023-09-19T13:57:35;20.00;99.90
21778;DHT22;11050;52.222;20.916;2023-09-19T14:00:01;20.00;99.90
21778;DHT22;11050;52.222;20.916;2023-09-19T14:02:26;20.00;99.90
21778;DHT22;11050;52.222;20.916;2023-09-19T14:04:52;19.90;99.90
21778;DHT22;11050;52.222;20.916;2023-09-19T14:07:18;20.00;99.90
21778;DHT22;11050;52.222;20.916;2023-09-19T14:09:45;19.90;99.90
21778;DHT22;11050;52.222;20.916;2023-09-19T14:12:12;19.90;99.90
21778;DHT22;11050;52.222;20.916;2023-09-19T14:14:38;19.90;99.90
21778;DHT22;11050;52.222;20.916;2023-09-19T14:17:04;19.90;99.90
21778;DHT22;11050;52.222;20.916;2023-09-19T14:19:32;20.00;99.90
21778;DHT22;11050;52.222;20.916;2023-09-19T14:21:58;19.90;99.90
21778;DHT22;11050;52.222;20.916;2023-09-19T14:24:24;19.90;99.90
21778;DHT22;11050;52.222;20.916;2023-09-19T14:26:50;20.00;99.90
21778;DHT22;11050;52.222;20.916;2023-09-19T14:29:16;20.00;99.90
21778;DHT22;11050;52.222;20.916;2023-09-19T14:31:42;20.00;99.90
21778;DHT22;11050;52.222;20.916;2023-09-19T14:34:08;19.90;99.90
21778;DHT22;11050;52.222;20.916;2023-09-19T14:36:38;20.00;99.90
21778;DHT22;11050;52.222;20.916;2023-09-19T14:39:04;20.00;99.90
21778;DHT22;11050;52.222;20.916;2023-09-19T14:41:30;20.10;99.90
21778;DHT22;11050;52.222;20.916;2023-09-19T14:43:56;20.10;99.90
21778;DHT22;11050;52.222;20.916;2023-09-19T14:46:22;20.20;99.90
21778;DHT22;11050;52.222;20.916;2023-09-19T14:48:52;20.20;99.90
21778;DHT22;11050;52.222;20.916;2023-09-19T14:51:19;20.30;99.90
21778;DHT22;11050;52.222;20.916;2023-09-19T14:53:45;20.30;99.90
21778;DHT22;11050;52.222;20.916;2023-09-19T14:56:12;20.30;99.90
21778;DHT22;11050;52.222;20.916;2023-09-19T14:58:41;20.40;99.90
21778;DHT22;11050;52.222;20.916;2023-09-19T15:01:11;20.50;99.90
21778;DHT22;11050;52.222;20.916;2023-09-19T15:03:40;20.50;99.90
21778;DHT22;11050;52.222;20.916;2023-09-19T15:06:09;20.60;99.90
21778;DHT22;11050;52.222;20.916;2023-09-19T15:08:40;20.60;99.90
21778;DHT22;11050;52.222;20.916;2023-09-19T15:11:11;20.60;99.90
21778;DHT22;11050;52.222;20.916;2023-09-19T15:13:37;20.60;99.90
21778;DHT22;11050;52.222;20.916;2023-09-19T15:16:05;20.60;99.90
21778;DHT22;11050;52.222;20.916;2023-09-19T15:18:39;20.60;99.90
21778;DHT22;11050;52.222;20.916;2023-09-19T15:21:08;20.60;99.90
21778;DHT22;11050;52.222;20.916;2023-09-19T15:23:36;20.60;99.90
21778;DHT22;11050;52.222;20.916;2023-09-19T15:26:05;20.60;99.90
21778;DHT22;11050;52.222;20.916;2023-09-19T15:28:34;20.60;99.90
21778;DHT22;11050;52.222;20.916;2023-09-19T15:31:04;20.70;99.90
21778;DHT22;11050;52.222;20.916;2023-09-19T15:33:32;21.00;99.90
21778;DHT22;11050;52.222;20.916;2023-09-19T15:39:03;21.60;99.90
21778;DHT22;11050;52.222;20.916;2023-09-19T15:41:37;22.00;99.90
21778;DHT22;11050;52.222;20.916;2023-09-19T15:44:14;22.40;99.90
21778;DHT22;11050;52.222;20.916;2023-09-19T15:46:41;22.50;99.90
21778;DHT22;11050;52.222;20.916;2023-09-19T15:49:08;22.70;99.90
21778;DHT22;11050;52.222;20.916;2023-09-19T15:51:34;22.80;99.90
21778;DHT22;11050;52.222;20.916;2023-09-19T15:54:11;23.00;99.90
21778;DHT22;11050;52.222;20.916;2023-09-19T15:56:44;23.00;99.90
21778;DHT22;11050;52.222;20.916;2023-09-19T15:59:11;23.10;99.90
21778;DHT22;11050;52.222;20.916;2023-09-19T16:01:41;22.90;99.90
21778;DHT22;11050;52.222;20.916;2023-09-19T16:04:08;22.80;99.90
21778;DHT22;11050;52.222;20.916;2023-09-19T16:06:35;22.70;99.90
21778;DHT22;11050;52.222;20.916;2023-09-19T16:09:03;22.70;99.90
21778;DHT22;11050;52.222;20.916;2023-09-19T16:11:32;22.70;99.90
21778;DHT22;11050;52.222;20.916;2023-09-19T16:13:58;22.70;99.90
21778;DHT22;11050;52.222;20.916;2023-09-19T16:16:26;22.60;99.90
21778;DHT22;11050;52.222;20.916;2023-09-19T16:18:59;22.50;99.90
21778;DHT22;11050;52.222;20.916;2023-09-19T16:21:29;22.30;99.90
21778;DHT22;11050;52.222;20.916;2023-09-19T16:24:00;22.10;99.90
21778;DHT22;11050;52.222;20.916;2023-09-19T16:26:26;21.90;99.90